sensor_id;sensor_type;location;lat;lon;timestamp;pressure;altitude;pressure_sealevel;temperature;humidity
82562;BME280;72228;51.208;10.468;2024-02-21T00:01:42;99733.06;;;6.79;75.41
82562;BME280;72228;51.208;10.468;2024-02-21T00:04:08;99729.22;;;6.80;75.65
82562;BME280;72228;51.208;10.468;2024-02-21T00:06:33;99734.19;;;6.88;75.06
82562;BME280;72228;51.208;10.468;2024-02-21T00:08:59;99723.16;;;6.88;74.95
82562;BME280;72228;51.208;10.468;2024-02-21T00:11:25;99724.81;;;6.84;75.39
82562;BME280;72228;51.208;10.468;2024-02-21T00:13:51;99721.22;;;6.89;75.35
82562;BME280;72228;51.208;10.468;2024-02-21T00:16:17;99717.66;;;6.88;74.79
82562;BME280;72228;51.208;10.468;2024-02-21T00:18:43;99719.59;;;6.98;75.22
82562;BME280;72228;51.208;10.468;2024-02-21T00:21:09;99701.66;;;6.95;74.56
82562;BME280;72228;51.208;10.468;2024-02-21T00:23:35;99701.13;;;6.93;74.84
82562;BME280;72228;51.208;10.468;2024-02-21T00:26:01;99705.53;;;6.94;75.25
82562;BME280;72228;51.208;10.468;2024-02-21T00:28:27;99703.88;;;6.93;75.06
82562;BME280;72228;51.208;10.468;2024-02-21T00:30:53;99700.53;;;6.91;75.01
82562;BME280;72228;51.208;10.468;2024-02-21T00:33:20;99707.19;;;7.01;74.44
82562;BME280;72228;51.208;10.468;2024-02-21T00:35:46;99700.28;;;7.03;75.14
82562;BME280;72228;51.208;10.468;2024-02-21T00:38:12;99701.94;;;6.94;75.06
82562;BME280;72228;51.208;10.468;2024-02-21T00:40:38;99693.66;;;6.89;75.76
82562;BME280;72228;51.208;10.468;2024-02-21T00:43:04;99694.50;;;6.84;76.12
82562;BME280;72228;51.208;10.468;2024-02-21T00:45:30;99690.09;;;6.83;76.10
82562;BME280;72228;51.208;10.468;2024-02-21T00:47:56;99687.63;;;6.92;75.44
82562;BME280;72228;51.208;10.468;2024-02-21T00:50:22;99690.09;;;6.93;75.86
82562;BME280;72228;51.208;10.468;2024-02-21T00:52:48;99685.13;;;6.90;76.51
82562;BME280;72228;51.208;10.468;2024-02-21T00:55:14;99687.34;;;6.88;78.07
82562;BME280;72228;51.208;10.468;2024-02-21T00:57:40;99685.69;;;6.87;78.22
82562;BME280;72228;51.208;10.468;2024-02-21T01:00:06;99680.44;;;6.81;77.93
82562;BME280;72228;51.208;10.468;2024-02-21T01:02:34;99689.25;;;6.83;77.98
82562;BME280;72228;51.208;10.468;2024-02-21T01:05:01;99687.59;;;6.77;78.54
82562;BME280;72228;51.208;10.468;2024-02-21T01:07:27;99696.97;;;6.70;79.05
82562;BME280;72228;51.208;10.468;2024-02-21T01:09:53;99696.16;;;6.70;78.97
82562;BME280;72228;51.208;10.468;2024-02-21T01:12:19;99708.53;;;6.78;79.47
82562;BME280;72228;51.208;10.468;2024-02-21T01:14:45;99705.78;;;6.62;81.21
82562;BME280;72228;51.208;10.468;2024-02-21T01:17:15;99704.38;;;6.60;81.73
82562;BME280;72228;51.208;10.468;2024-02-21T01:19:41;99691.72;;;6.54;81.63
82562;BME280;72228;51.208;10.468;2024-02-21T01:22:07;99689.53;;;6.56;81.18
82562;BME280;72228;51.208;10.468;2024-02-21T01:24:33;99680.69;;;6.49;81.07
82562;BME280;72228;51.208;10.468;2024-02-21T01:26:58;99681.78;;;6.48;80.83
82562;BME280;72228;51.208;10.468;2024-02-21T01:29:24;99677.38;;;6.41;81.16
82562;BME280;72228;51.208;10.468;2024-02-21T01:31:50;99670.50;;;6.44;81.05
82562;BME280;72228;51.208;10.468;2024-02-21T01:34:16;99677.09;;;6.48;81.14
82562;BME280;72228;51.208;10.468;2024-02-21T01:36:42;99675.16;;;6.49;81.11
82562;BME280;72228;51.208;10.468;2024-02-21T01:39:08;99674.91;;;6.50;80.94
82562;BME280;72228;51.208;10.468;2024-02-21T01:41:33;99677.38;;;6.52;80.81
82562;BME280;72228;51.208;10.468;2024-02-21T01:43:59;99677.69;;;6.55;80.32
82562;BME280;72228;51.208;10.468;2024-02-21T01:46:25;99684.53;;;6.53;80.35
82562;BME280;72228;51.208;10.468;2024-02-21T01:48:56;99677.41;;;6.62;80.19
82562;BME280;72228;51.208;10.468;2024-02-21T01:51:26;99676.81;;;6.55;81.17
82562;BME280;72228;51.208;10.468;2024-02-21T01:53:53;99675.47;;;6.57;80.22
82562;BME280;72228;51.208;10.468;2024-02-21T01:56:21;99669.69;;;6.64;80.03
82562;BME280;72228;51.208;10.468;2024-02-21T01:58:48;99665.81;;;6.60;80.23
82562;BME280;72228;51.208;10.468;2024-02-21T02:01:14;99660.59;;;6.58;80.19
82562;BME280;72228;51.208;10.468;2024-02-21T02:03:40;99656.19;;;6.57;80.15
82562;BME280;72228;51.208;10.468;2024-02-21T02:06:06;99646.53;;;6.60;80.05
82562;BME280;72228;51.208;10.468;2024-02-21T02:08:35;99653.13;;;6.54;80.66
82562;BME280;72228;51.208;10.468;2024-02-21T02:11:01;99653.72;;;6.56;80.88
82562;BME280;72228;51.208;10.468;2024-02-21T02:13:27;99647.63;;;6.54;80.73
82562;BME280;72228;51.208;10.468;2024-02-21T02:15:54;99638.28;;;6.60;80.67
82562;BME280;72228;51.208;10.468;2024-02-21T02:18:21;99641.03;;;6.60;80.02
82562;BME280;72228;51.208;10.468;2024-02-21T02:20:47;99639.13;;;6.55;80.99
82562;BME280;72228;51.208;10.468;2024-02-21T02:23:25;99633.31;;;6.52;80.83
82562;BME280;72228;51.208;10.468;2024-02-21T02:25:52;99623.94;;;6.53;80.63
82562;BME280;72228;51.208;10.468;2024-02-21T02:28:19;99622.31;;;6.57;80.42
82562;BME280;72228;51.208;10.468;2024-02-21T02:30:45;99619.81;;;6.60;80.42
82562;BME280;72228;51.208;10.468;2024-02-21T02:33:11;99616.22;;;6.60;80.28
82562;BME280;72228;51.208;10.468;2024-02-21T02:35:36;99626.41;;;6.59;80.82
82562;BME280;72228;51.208;10.468;2024-02-21T02:38:03;99622.59;;;6.55;81.09
82562;BME280;72228;51.208;10.468;2024-02-21T02:40:30;99618.44;;;6.58;80.83
82562;BME280;72228;51.208;10.468;2024-02-21T02:42:56;99609.34;;;6.57;81.34
82562;BME280;72228;51.208;10.468;2024-02-21T02:45:23;99600.81;;;6.59;81.31
82562;BME280;72228;51.208;10.468;2024-02-21T02:47:55;99603.56;;;6.64;80.63
82562;BME280;72228;51.208;10.468;2024-02-21T02:50:23;99606.31;;;6.59;80.67
82562;BME280;72228;51.208;10.468;2024-02-21T02:52:49;99604.66;;;6.53;81.20
82562;BME280;72228;51.208;10.468;2024-02-21T02:55:15;99607.97;;;6.55;81.04
82562;BME280;72228;51.208;10.468;2024-02-21T02:57:42;99607.41;;;6.53;81.20
82562;BME280;72228;51.208;10.468;2024-02-21T03:00:11;99591.72;;;6.53;81.91
82562;BME280;72228;51.208;10.468;2024-02-21T03:02:39;99586.22;;;6.63;80.83
82562;BME280;72228;51.208;10.468;2024-02-21T03:05:14;99585.38;;;6.63;80.73
82562;BME280;72228;51.208;10.468;2024-02-21T03:07:41;99588.69;;;6.65;81.11
82562;BME280;72228;51.208;10.468;2024-02-21T03:10:07;99573.25;;;6.59;81.60
82562;BME280;72228;51.208;10.468;2024-02-21T03:12:33;99567.22;;;6.62;80.51
82562;BME280;72228;51.208;10.468;2024-02-21T03:14:58;99563.88;;;6.60;80.97
82562;BME280;72228;51.208;10.468;2024-02-21T03:17:25;99569.41;;;6.55;81.48
82562;BME280;72228;51.208;10.468;2024-02-21T03:19:52;99566.94;;;6.58;81.18
82562;BME280;72228;51.208;10.468;2024-02-21T03:22:18;99561.97;;;6.55;81.83
82562;BME280;72228;51.208;10.468;2024-02-21T03:24:44;99555.63;;;6.55;81.74
82562;BME280;72228;51.208;10.468;2024-02-21T03:27:10;99553.97;;;6.54;82.09
82562;BME280;72228;51.208;10.468;2024-02-21T03:29:36;99553.44;;;6.52;81.93
82562;BME280;72228;51.208;10.468;2024-02-21T03:32:02;99548.47;;;6.54;82.04
82562;BME280;72228;51.208;10.468;2024-02-21T03:34:28;99558.94;;;6.57;82.20
82562;BME280;72228;51.208;10.468;2024-02-21T03:36:54;99562.53;;;6.62;81.89
82562;BME280;72228;51.208;10.468;2024-02-21T03:39:20;99549.84;;;6.56;81.65
82562;BME280;72228;51.208;10.468;2024-02-21T03:41:47;99553.69;;;6.60;82.01
82562;BME280;72228;51.208;10.468;2024-02-21T03:44:13;99550.69;;;6.62;81.94
82562;BME280;72228;51.208;10.468;2024-02-21T03:46:39;99544.06;;;6.58;81.90
82562;BME280;72228;51.208;10.468;2024-02-21T03:49:05;99540.78;;;6.56;82.45
82562;BME280;72228;51.208;10.468;2024-02-21T03:51:30;99537.44;;;6.64;81.98
82562;BME280;72228;51.208;10.468;2024-02-21T03:53:56;99537.44;;;6.64;81.56
82562;BME280;72228;51.208;10.468;2024-02-21T03:56:23;99537.97;;;6.61;82.39
82562;BME280;72228;51.208;10.468;2024-02-21T03:58:50;99526.97;;;6.61;82.14
82562;BME280;72228;51.208;10.468;2024-02-21T04:01:16;99538.56;;;6.58;81.69
82562;BME280;72228;51.208;10.468;2024-02-21T04:03:44;99542.38;;;6.67;82.17
82562;BME280;72228;51.208;10.468;2024-02-21T04:06:10;99551.75;;;6.61;82.35
82562;BME280;72228;51.208;10.468;2024-02-21T04:08:36;99550.09;;;6.70;81.87
82562;BME280;72228;51.208;10.468;2024-02-21T04:11:02;99557.25;;;6.66;81.86
82562;BME280;72228;51.208;10.468;2024-02-21T04:13:28;99555.63;;;6.65;81.86
82562;BME280;72228;51.208;10.468;2024-02-21T04:15:53;99544.59;;;6.70;81.85
82562;BME280;72228;51.208;10.468;2024-02-21T04:18:19;99550.09;;;6.70;81.82
82562;BME280;72228;51.208;10.468;2024-02-21T04:20:45;99555.63;;;6.65;82.75
82562;BME280;72228;51.208;10.468;2024-02-21T04:23:11;99544.59;;;6.65;82.43
82562;BME280;72228;51.208;10.468;2024-02-21T04:25:36;99552.31;;;6.68;82.36
82562;BME280;72228;51.208;10.468;2024-02-21T04:28:02;99545.44;;;6.65;82.35
82562;BME280;72228;51.208;10.468;2024-02-21T04:30:28;99539.09;;;6.65;82.47
82562;BME280;72228;51.208;10.468;2024-02-21T04:32:54;99534.97;;;6.62;82.14
82562;BME280;72228;51.208;10.468;2024-02-21T04:35:20;99535.22;;;6.61;82.69
82562;BME280;72228;51.208;10.468;2024-02-21T04:37:46;99520.38;;;6.57;82.48
82562;BME280;72228;51.208;10.468;2024-02-21T04:40:12;99515.94;;;6.61;83.18
82562;BME280;72228;51.208;10.468;2024-02-21T04:42:39;99513.22;;;6.56;82.80
82562;BME280;72228;51.208;10.468;2024-02-21T04:45:05;99506.03;;;6.55;83.26
82562;BME280;72228;51.208;10.468;2024-02-21T04:47:32;99502.47;;;6.59;82.91
82562;BME280;72228;51.208;10.468;2024-02-21T04:49:57;99493.34;;;6.69;82.39
82562;BME280;72228;51.208;10.468;2024-02-21T04:52:23;99485.38;;;6.62;82.45
82562;BME280;72228;51.208;10.468;2024-02-21T04:54:49;99468.28;;;6.60;82.95
82562;BME280;72228;51.208;10.468;2024-02-21T04:57:15;99471.03;;;6.60;82.83
82562;BME280;72228;51.208;10.468;2024-02-21T04:59:46;99471.03;;;6.60;83.19
82562;BME280;72228;51.208;10.468;2024-02-21T05:02:13;99466.09;;;6.57;83.32
82562;BME280;72228;51.208;10.468;2024-02-21T05:04:39;99463.34;;;6.62;82.23
82562;BME280;72228;51.208;10.468;2024-02-21T05:07:07;99463.59;;;6.61;82.95
82562;BME280;72228;51.208;10.468;2024-02-21T05:09:33;99472.44;;;6.58;82.91
82562;BME280;72228;51.208;10.468;2024-02-21T05:11:59;99472.16;;;6.64;82.74
82562;BME280;72228;51.208;10.468;2024-02-21T05:14:26;99473.50;;;6.72;82.02
82562;BME280;72228;51.208;10.468;2024-02-21T05:16:53;99479.00;;;6.82;81.69
82562;BME280;72228;51.208;10.468;2024-02-21T05:19:19;99471.56;;;6.78;81.94
82562;BME280;72228;51.208;10.468;2024-02-21T05:21:45;99459.13;;;6.85;81.47
82562;BME280;72228;51.208;10.468;2024-02-21T05:24:11;99453.66;;;6.80;81.71
82562;BME280;72228;51.208;10.468;2024-02-21T05:26:37;99453.06;;;6.83;81.43
82562;BME280;72228;51.208;10.468;2024-02-21T05:29:03;99442.03;;;6.88;81.32
82562;BME280;72228;51.208;10.468;2024-02-21T05:34:17;99441.72;;;6.95;80.70
82562;BME280;72228;51.208;10.468;2024-02-21T05:36:43;99444.19;;;6.96;81.48
82562;BME280;72228;51.208;10.468;2024-02-21T05:39:10;99444.22;;;6.91;81.16
82562;BME280;72228;51.208;10.468;2024-02-21T05:41:36;99437.63;;;6.87;81.51
82562;BME280;72228;51.208;10.468;2024-02-21T05:44:02;99443.97;;;6.88;81.41
82562;BME280;72228;51.208;10.468;2024-02-21T05:46:28;99433.75;;;6.88;80.84
82562;BME280;72228;51.208;10.468;2024-02-21T05:48:54;99426.91;;;6.86;81.37
82562;BME280;72228;51.208;10.468;2024-02-21T05:51:20;99436.50;;;6.93;81.09
82562;BME280;72228;51.208;10.468;2024-02-21T05:53:46;99443.13;;;6.92;81.08
82562;BME280;72228;51.208;10.468;2024-02-21T05:56:13;99438.16;;;6.94;80.65
82562;BME280;72228;51.208;10.468;2024-02-21T05:58:39;99438.16;;;6.89;80.42
82562;BME280;72228;51.208;10.468;2024-02-21T06:01:06;99448.34;;;6.94;80.56
82562;BME280;72228;51.208;10.468;2024-02-21T06:03:33;99471.50;;;6.98;80.66
82562;BME280;72228;51.208;10.468;2024-02-21T06:05:59;99471.75;;;7.02;79.77
82562;BME280;72228;51.208;10.468;2024-02-21T06:08:25;99477.25;;;7.07;79.60
82562;BME280;72228;51.208;10.468;2024-02-21T06:10:51;99487.19;;;7.03;79.98
82562;BME280;72228;51.208;10.468;2024-02-21T06:13:21;99485.53;;;6.96;80.32
82562;BME280;72228;51.208;10.468;2024-02-21T06:15:47;99484.41;;;7.03;79.62
82562;BME280;72228;51.208;10.468;2024-02-21T06:18:13;99487.75;;;6.99;79.68
82562;BME280;72228;51.208;10.468;2024-02-21T06:20:39;99488.28;;;7.02;79.45
82562;BME280;72228;51.208;10.468;2024-02-21T06:23:06;99492.69;;;6.97;79.67
82562;BME280;72228;51.208;10.468;2024-02-21T06:25:32;99487.75;;;6.94;80.38
82562;BME280;72228;51.208;10.468;2024-02-21T06:27:58;99485.53;;;6.96;80.26
82562;BME280;72228;51.208;10.468;2024-02-21T06:30:24;99482.25;;;6.99;79.73
82562;BME280;72228;51.208;10.468;2024-02-21T06:32:50;99480.84;;;7.02;80.04
82562;BME280;72228;51.208;10.468;2024-02-21T06:35:15;99492.16;;;7.01;79.57
82562;BME280;72228;51.208;10.468;2024-02-21T06:37:42;99492.16;;;7.01;79.31
82562;BME280;72228;51.208;10.468;2024-02-21T08:10:54;99419.50;;;7.70;72.54
82562;BME280;72228;51.208;10.468;2024-02-21T09:08:08;99368.22;;;8.75;68.14
82562;BME280;72228;51.208;10.468;2024-02-21T09:12:00;99361.28;;;8.96;67.29
82562;BME280;72228;51.208;10.468;2024-02-21T11:48:48;99201.94;;;9.65;68.72
82562;BME280;72228;51.208;10.468;2024-02-21T11:57:38;99174.56;;;9.91;66.65
82562;BME280;72228;51.208;10.468;2024-02-21T13:13:44;99056.66;;;10.49;60.93
82562;BME280;72228;51.208;10.468;2024-02-21T13:16:36;99053.31;;;10.61;60.08
82562;BME280;72228;51.208;10.468;2024-02-21T13:45:57;99007.59;;;10.27;60.75
82562;BME280;72228;51.208;10.468;2024-02-21T13:48:26;99003.06;;;10.17;60.96
82562;BME280;72228;51.208;10.468;2024-02-21T13:50:52;98999.59;;;10.26;61.57
82562;BME280;72228;51.208;10.468;2024-02-21T13:53:18;98991.94;;;10.31;61.18
82562;BME280;72228;51.208;10.468;2024-02-21T13:55:45;98988.25;;;10.36;61.80
82562;BME280;72228;51.208;10.468;2024-02-21T13:58:11;98989.25;;;10.40;61.54
82562;BME280;72228;51.208;10.468;2024-02-21T14:00:37;98983.97;;;10.52;61.31
82562;BME280;72228;51.208;10.468;2024-02-21T14:03:03;98977.28;;;10.53;61.16
82562;BME280;72228;51.208;10.468;2024-02-21T14:05:29;98969.91;;;10.48;60.56
82562;BME280;72228;51.208;10.468;2024-02-21T14:07:55;98956.81;;;10.40;61.63
82562;BME280;72228;51.208;10.468;2024-02-21T14:10:21;98955.59;;;10.55;61.01
82562;BME280;72228;51.208;10.468;2024-02-21T14:12:48;98949.81;;;10.43;60.89
82562;BME280;72228;51.208;10.468;2024-02-21T14:15:14;98942.91;;;10.32;61.27
82562;BME280;72228;51.208;10.468;2024-02-21T14:17:40;98940.13;;;10.09;61.26
82562;BME280;72228;51.208;10.468;2024-02-21T14:20:07;98923.50;;;10.09;61.11
82562;BME280;72228;51.208;10.468;2024-02-21T14:22:33;98922.03;;;10.12;61.36
82562;BME280;72228;51.208;10.468;2024-02-21T14:25:00;98922.59;;;10.23;61.38
82562;BME280;72228;51.208;10.468;2024-02-21T14:27:26;98916.34;;;10.08;61.36
82562;BME280;72228;51.208;10.468;2024-02-21T14:29:52;98916.94;;;10.05;61.80
82562;BME280;72228;51.208;10.468;2024-02-21T14:32:18;98909.72;;;9.96;61.93
82562;BME280;72228;51.208;10.468;2024-02-21T14:34:45;98914.44;;;9.95;61.73
82562;BME280;72228;51.208;10.468;2024-02-21T14:37:11;98906.38;;;9.85;62.35
82562;BME280;72228;51.208;10.468;2024-02-21T14:39:37;98914.81;;;9.80;62.43
82562;BME280;72228;51.208;10.468;2024-02-21T14:42:04;98910.97;;;9.67;62.23
82562;BME280;72228;51.208;10.468;2024-02-21T14:44:29;98905.59;;;9.71;62.14
82562;BME280;72228;51.208;10.468;2024-02-21T14:46:55;98902.34;;;9.68;62.38
82562;BME280;72228;51.208;10.468;2024-02-21T14:49:21;98896.91;;;9.63;61.89
82562;BME280;72228;51.208;10.468;2024-02-21T14:51:47;98889.25;;;9.60;62.04
82562;BME280;72228;51.208;10.468;2024-02-21T14:54:13;98886.59;;;9.55;62.33
82562;BME280;72228;51.208;10.468;2024-02-21T14:56:39;98871.63;;;9.56;62.53
82562;BME280;72228;51.208;10.468;2024-02-21T14:59:05;98867.34;;;9.50;63.02
82562;BME280;72228;51.208;10.468;2024-02-21T15:01:36;98864.09;;;9.48;62.91
82562;BME280;72228;51.208;10.468;2024-02-21T15:04:04;98854.16;;;9.47;62.52
82562;BME280;72228;51.208;10.468;2024-02-21T15:06:30;98848.91;;;9.46;62.47
82562;BME280;72228;51.208;10.468;2024-02-21T15:08:57;98846.69;;;9.34;62.81
82562;BME280;72228;51.208;10.468;2024-02-21T15:11:24;98844.63;;;9.39;62.60
82562;BME280;72228;51.208;10.468;2024-02-21T15:13:50;98835.63;;;9.34;62.67
82562;BME280;72228;51.208;10.468;2024-02-21T15:16:16;98835.78;;;9.29;63.70
82562;BME280;72228;51.208;10.468;2024-02-21T15:18:42;98814.75;;;9.28;62.87
82562;BME280;72228;51.208;10.468;2024-02-21T15:21:08;98819.16;;;9.29;63.00
82562;BME280;72228;51.208;10.468;2024-02-21T15:23:39;98822.53;;;9.26;62.37
82562;BME280;72228;51.208;10.468;2024-02-21T15:26:06;98805.94;;;9.26;63.25
82562;BME280;72228;51.208;10.468;2024-02-21T15:28:32;98795.69;;;9.26;62.40
82562;BME280;72228;51.208;10.468;2024-02-21T15:30:58;98794.28;;;9.29;63.04
82562;BME280;72228;51.208;10.468;2024-02-21T15:33:24;98780.34;;;9.20;63.70
82562;BME280;72228;51.208;10.468;2024-02-21T15:35:51;98766.41;;;9.25;62.41
82562;BME280;72228;51.208;10.468;2024-02-21T15:38:17;98758.31;;;9.29;61.77
82562;BME280;72228;51.208;10.468;2024-02-21T15:40:45;98760.69;;;9.22;61.76
82562;BME280;72228;51.208;10.468;2024-02-21T15:43:11;98766.22;;;9.22;61.37
82562;BME280;72228;51.208;10.468;2024-02-21T15:45:37;98759.25;;;9.24;61.50
82562;BME280;72228;51.208;10.468;2024-02-21T15:48:06;98762.13;;;9.19;61.86
82562;BME280;72228;51.208;10.468;2024-02-21T15:50:32;98752.91;;;9.24;60.75
82562;BME280;72228;51.208;10.468;2024-02-21T15:52:58;98741.63;;;9.20;61.04
82562;BME280;72228;51.208;10.468;2024-02-21T15:55:24;98736.09;;;9.20;60.15
82562;BME280;72228;51.208;10.468;2024-02-21T15:57:50;98725.47;;;9.13;60.23
82562;BME280;72228;51.208;10.468;2024-02-21T16:00:17;98726.13;;;9.10;60.49
82562;BME280;72228;51.208;10.468;2024-02-21T16:02:46;98735.16;;;9.02;61.02
82562;BME280;72228;51.208;10.468;2024-02-21T16:05:12;98723.72;;;8.95;61.03
82562;BME280;72228;51.208;10.468;2024-02-21T16:07:38;98717.16;;;8.91;61.43
82562;BME280;72228;51.208;10.468;2024-02-21T16:10:05;98716.78;;;8.84;61.66
82562;BME280;72228;51.208;10.468;2024-02-21T16:12:31;98711.56;;;8.82;61.49
82562;BME280;72228;51.208;10.468;2024-02-21T16:14:57;98704.97;;;8.70;62.64
82562;BME280;72228;51.208;10.468;2024-02-21T16:17:23;98696.56;;;8.75;62.16
82562;BME280;72228;51.208;10.468;2024-02-21T16:19:50;98686.22;;;8.67;61.66
82562;BME280;72228;51.208;10.468;2024-02-21T16:22:16;98679.44;;;8.50;62.68
82562;BME280;72228;51.208;10.468;2024-02-21T16:24:42;98680.47;;;8.41;62.95
82562;BME280;72228;51.208;10.468;2024-02-21T16:27:09;98666.56;;;8.32;62.44
82562;BME280;72228;51.208;10.468;2024-02-21T16:29:36;98662.47;;;8.16;63.93
82562;BME280;72228;51.208;10.468;2024-02-21T16:32:02;98652.19;;;8.07;63.62
82562;BME280;72228;51.208;10.468;2024-02-21T16:34:28;98655.75;;;7.94;63.92
82562;BME280;72228;51.208;10.468;2024-02-21T16:36:57;98634.28;;;7.91;63.70
82562;BME280;72228;51.208;10.468;2024-02-21T16:39:26;98638.88;;;7.82;64.39
82562;BME280;72228;51.208;10.468;2024-02-21T16:41:52;98639.41;;;7.84;63.68
82562;BME280;72228;51.208;10.468;2024-02-21T16:44:19;98624.69;;;7.75;64.16
82562;BME280;72228;51.208;10.468;2024-02-21T16:46:49;98616.09;;;7.76;63.77
82562;BME280;72228;51.208;10.468;2024-02-21T16:49:15;98610.50;;;7.68;64.50
82562;BME280;72228;51.208;10.468;2024-02-21T16:51:45;98617.66;;;7.55;64.80
82562;BME280;72228;51.208;10.468;2024-02-21T16:54:11;98610.19;;;7.56;65.24
82562;BME280;72228;51.208;10.468;2024-02-21T16:56:40;98611.41;;;7.49;64.86
82562;BME280;72228;51.208;10.468;2024-02-21T16:59:06;98604.56;;;7.61;65.09
82562;BME280;72228;51.208;10.468;2024-02-21T17:01:35;98617.16;;;7.53;65.13
82562;BME280;72228;51.208;10.468;2024-02-21T17:04:07;98619.38;;;7.51;64.91
82562;BME280;72228;51.208;10.468;2024-02-21T17:06:33;98618.56;;;7.64;64.99
82562;BME280;72228;51.208;10.468;2024-02-21T17:09:01;98621.75;;;7.71;65.03
82562;BME280;72228;51.208;10.468;2024-02-21T17:11:27;98614.88;;;7.69;65.16
82562;BME280;72228;51.208;10.468;2024-02-21T17:13:52;98611.22;;;7.73;64.69
82562;BME280;72228;51.208;10.468;2024-02-21T17:16:18;98622.75;;;7.75;64.87
82562;BME280;72228;51.208;10.468;2024-02-21T17:18:44;98628.47;;;7.79;64.72
82562;BME280;72228;51.208;10.468;2024-02-21T17:21:12;98622.13;;;7.92;63.71
82562;BME280;72228;51.208;10.468;2024-02-21T17:23:39;98617.25;;;7.89;64.59
82562;BME280;72228;51.208;10.468;2024-02-21T17:26:05;98611.19;;;7.87;64.49
82562;BME280;72228;51.208;10.468;2024-02-21T17:28:32;98605.28;;;7.80;65.08
82562;BME280;72228;51.208;10.468;2024-02-21T17:30:58;98599.94;;;7.70;65.61
82562;BME280;72228;51.208;10.468;2024-02-21T17:33:24;98615.28;;;7.76;65.66
82562;BME280;72228;51.208;10.468;2024-02-21T17:35:49;98608.03;;;7.80;65.30
82562;BME280;72228;51.208;10.468;2024-02-21T17:38:16;98607.13;;;7.85;65.71
82562;BME280;72228;51.208;10.468;2024-02-21T17:40:48;98592.72;;;7.74;65.92
82562;BME280;72228;51.208;10.468;2024-02-21T17:43:16;98594.13;;;7.85;65.73
82562;BME280;72228;51.208;10.468;2024-02-21T17:45:42;98597.50;;;7.82;66.49
82562;BME280;72228;51.208;10.468;2024-02-21T17:48:08;98605.28;;;7.80;66.63
82562;BME280;72228;51.208;10.468;2024-02-21T17:50:34;98603.00;;;7.82;66.64
82562;BME280;72228;51.208;10.468;2024-02-21T17:53:00;98599.00;;;7.88;66.89
82562;BME280;72228;51.208;10.468;2024-02-21T17:55:27;98582.03;;;8.09;66.68
82562;BME280;72228;51.208;10.468;2024-02-21T17:57:53;98588.25;;;8.00;66.67
82562;BME280;72228;51.208;10.468;2024-02-21T18:00:20;98586.63;;;7.99;66.42
82562;BME280;72228;51.208;10.468;2024-02-21T18:02:47;98587.88;;;7.93;67.58
82562;BME280;72228;51.208;10.468;2024-02-21T18:05:13;98572.13;;;8.07;67.45
82562;BME280;72228;51.208;10.468;2024-02-21T18:07:43;98570.66;;;8.10;68.12
82562;BME280;72228;51.208;10.468;2024-02-21T18:10:11;98565.56;;;8.03;68.41
82562;BME280;72228;51.208;10.468;2024-02-21T18:12:37;98559.63;;;8.10;68.61
82562;BME280;72228;51.208;10.468;2024-02-21T18:15:03;98560.66;;;8.00;68.81
82562;BME280;72228;51.208;10.468;2024-02-21T18:17:30;98551.13;;;8.06;68.65
82562;BME280;72228;51.208;10.468;2024-02-21T18:19:58;98553.22;;;8.01;69.66
82562;BME280;72228;51.208;10.468;2024-02-21T18:22:25;98548.50;;;8.01;69.45
82562;BME280;72228;51.208;10.468;2024-02-21T18:24:54;98538.03;;;8.12;69.45
82562;BME280;72228;51.208;10.468;2024-02-21T18:27:20;98542.75;;;8.12;69.59
82562;BME280;72228;51.208;10.468;2024-02-21T18:29:48;98548.25;;;8.12;69.67
82562;BME280;72228;51.208;10.468;2024-02-21T18:32:14;98546.41;;;8.21;69.48
82562;BME280;72228;51.208;10.468;2024-02-21T18:34:40;98552.47;;;8.09;70.72
82562;BME280;72228;51.208;10.468;2024-02-21T18:37:06;98539.59;;;8.04;70.63
82562;BME280;72228;51.208;10.468;2024-02-21T18:39:32;98543.88;;;8.11;70.45
82562;BME280;72228;51.208;10.468;2024-02-21T18:42:00;98536.72;;;8.10;70.38
82562;BME280;72228;51.208;10.468;2024-02-21T18:44:27;98528.16;;;7.97;71.02
82562;BME280;72228;51.208;10.468;2024-02-21T18:46:53;98508.31;;;8.09;71.11
82562;BME280;72228;51.208;10.468;2024-02-21T18:49:19;98517.50;;;8.04;71.25
82562;BME280;72228;51.208;10.468;2024-02-21T18:51:46;98514.13;;;8.07;71.71
82562;BME280;72228;51.208;10.468;2024-02-21T18:54:12;98517.34;;;8.01;71.53
82562;BME280;72228;51.208;10.468;2024-02-21T18:56:38;98514.81;;;7.91;72.31
82562;BME280;72228;51.208;10.468;2024-02-21T18:59:04;98510.69;;;8.02;71.79
82562;BME280;72228;51.208;10.468;2024-02-21T19:01:32;98510.09;;;7.91;71.95
82562;BME280;72228;51.208;10.468;2024-02-21T19:03:58;98498.31;;;7.99;71.82
82562;BME280;72228;51.208;10.468;2024-02-21T19:06:24;98498.13;;;7.96;72.38
82562;BME280;72228;51.208;10.468;2024-02-21T19:08:50;98495.47;;;7.91;72.02
82562;BME280;72228;51.208;10.468;2024-02-21T19:11:16;98485.84;;;7.88;72.52
82562;BME280;72228;51.208;10.468;2024-02-21T19:13:42;98495.66;;;7.94;71.90
82562;BME280;72228;51.208;10.468;2024-02-21T19:16:08;98485.25;;;7.91;71.21
82562;BME280;72228;51.208;10.468;2024-02-21T19:18:36;98486.97;;;8.01;70.48
82562;BME280;72228;51.208;10.468;2024-02-21T19:21:04;98486.81;;;8.06;70.32
82562;BME280;72228;51.208;10.468;2024-02-21T19:23:30;98472.41;;;8.09;70.58
82562;BME280;72228;51.208;10.468;2024-02-21T19:25:56;98464.63;;;8.11;70.06
82562;BME280;72228;51.208;10.468;2024-02-21T19:28:22;98449.13;;;8.24;68.91
82562;BME280;72228;51.208;10.468;2024-02-21T19:30:48;98451.00;;;8.15;69.21
82562;BME280;72228;51.208;10.468;2024-02-21T19:33:14;98440.78;;;8.15;68.66
82562;BME280;72228;51.208;10.468;2024-02-21T19:35:40;98435.06;;;8.12;68.98
82562;BME280;72228;51.208;10.468;2024-02-21T19:38:06;98441.84;;;8.05;69.33
82562;BME280;72228;51.208;10.468;2024-02-21T19:40:34;98439.19;;;8.00;68.97
82562;BME280;72228;51.208;10.468;2024-02-21T19:43:00;98428.25;;;8.09;68.33
82562;BME280;72228;51.208;10.468;2024-02-21T19:45:27;98428.16;;;8.00;68.95
82562;BME280;72228;51.208;10.468;2024-02-21T19:47:54;98419.25;;;8.03;67.44